Time;durP1;ratioP1;P1;durP2;ratioP2;P2;SDS_P1;SDS_P2;PMS_P1;PMS_P2;Temp;Humidity;BMP_temperature;BMP_pressure;BME280_temperature;BME280_humidity;BME280_pressure;Samples;Min_cycle;Max_cycle;Signal;HPM_P1;HPM_P2
2023/03/03 00:00:05;;;;;;;15.95;9.30;;;;;;;0.74;81.09;99730.97;5089088;28;20047;-59
2023/03/03 00:02:31;;;;;;;13.27;8.05;;;;;;;0.87;76.35;99738.38;5078982;28;20097;-59
2023/03/03 00:04:56;;;;;;;15.13;8.73;;;;;;;0.79;77.53;99739.22;5083474;28;20028;-59
2023/03/03 00:07:22;;;;;;;16.45;8.80;;;;;;;0.84;77.50;99738.72;5067407;28;20104;-59
2023/03/03 00:09:48;;;;;;;16.50;7.80;;;;;;;0.84;75.79;99739.53;5055575;28;20114;-59
2023/03/03 00:12:23;;;;;;;13.20;7.88;;;;;;;0.67;78.38;99745.00;5087353;28;20477;-59
2023/03/03 00:14:48;;;;;;;17.08;8.43;;;;;;;0.69;77.62;99740.38;5054503;28;20035;-59
2023/03/03 00:17:24;;;;;;;14.82;8.43;;;;;;;0.85;76.62;99746.50;5072320;28;20029;-59
2023/03/03 00:19:50;;;;;;;13.13;7.55;;;;;;;0.84;77.16;99744.00;5093895;28;20081;-59
2023/03/03 00:22:30;;;;;;;18.25;7.90;;;;;;;0.84;78.92;99746.63;5092858;28;20016;-59
2023/03/03 00:25:41;;;;;;;13.15;7.35;;;;;;;0.91;78.43;99749.44;5065679;28;20378;-59
2023/03/03 00:28:07;;;;;;;12.95;6.70;;;;;;;1.04;81.23;99745.28;5082691;28;20501;-59
2023/03/03 00:30:32;;;;;;;15.75;8.15;;;;;;;1.10;82.62;99759.66;5060153;28;20234;-59
2023/03/03 00:32:58;;;;;;;13.82;7.03;;;;;;;0.86;81.17;99755.22;5079914;28;20038;-59
2023/03/03 00:35:34;;;;;;;17.02;7.90;;;;;;;0.41;80.26;99765.28;5074505;28;20043;-59
2023/03/03 00:38:01;;;;;;;15.15;7.90;;;;;;;0.56;82.23;99757.53;5073425;28;20119;-59
2023/03/03 00:40:37;;;;;;;13.02;7.88;;;;;;;0.64;78.56;99765.44;5055678;28;20315;-59
2023/03/03 00:43:26;;;;;;;14.30;8.40;;;;;;;0.69;80.37;99766.78;5079511;28;20032;-59
2023/03/03 00:45:55;;;;;;;12.63;7.45;;;;;;;0.68;79.23;99765.13;5061986;28;20046;-60
2023/03/03 00:48:41;;;;;;;18.85;7.93;;;;;;;0.74;78.42;99770.56;5080897;28;20028;-60
2023/03/03 00:51:25;;;;;;;15.82;8.25;;;;;;;0.66;78.18;99770.56;5076037;28;20044;-59
2023/03/03 00:53:51;;;;;;;16.67;8.70;;;;;;;0.38;80.42;99764.78;5074927;28;20483;-59
2023/03/03 00:56:16;;;;;;;18.17;8.98;;;;;;;0.34;81.85;99774.00;5077595;28;20039;-59
2023/03/03 00:58:44;;;;;;;15.30;8.52;;;;;;;0.39;81.99;99771.69;5074492;28;20024;-59
2023/03/03 01:01:10;;;;;;;12.98;7.90;;;;;;;0.13;82.99;99777.94;5081724;28;20034;-58
2023/03/03 01:03:35;;;;;;;16.30;9.30;;;;;;;0.09;84.02;99781.88;5076697;28;20021;-59
2023/03/03 01:06:01;;;;;;;23.77;9.10;;;;;;;0.05;84.38;99780.56;5087723;28;20481;-60
2023/03/03 01:08:26;;;;;;;16.50;9.10;;;;;;;0.25;84.96;99782.88;5054757;28;20038;-60
2023/03/03 01:10:56;;;;;;;15.18;8.27;;;;;;;0.40;84.66;99775.97;5073617;28;20510;-60
2023/03/03 01:13:25;;;;;;;14.60;8.45;;;;;;;0.27;87.15;99775.66;5063530;28;20044;-60
2023/03/03 01:15:51;;;;;;;14.05;8.95;;;;;;;0.40;91.47;99778.63;5072722;28;20020;-59
2023/03/03 01:18:16;;;;;;;15.85;8.68;;;;;;;0.01;83.55;99783.66;5091803;28;20032;-60
2023/03/03 01:20:42;;;;;;;16.48;9.00;;;;;;;0.09;90.50;99784.50;5054260;28;20115;-58
2023/03/03 01:23:07;;;;;;;17.67;9.30;;;;;;;-0.17;85.15;99778.50;5086340;28;20051;-58
2023/03/03 01:25:32;;;;;;;17.92;9.55;;;;;;;0.18;87.09;99769.53;5086831;28;20019;-58
2023/03/03 01:27:58;;;;;;;15.77;8.82;;;;;;;0.00;85.70;99774.94;5057556;28;20033;-58
2023/03/03 01:30:24;;;;;;;16.88;9.45;;;;;;;-0.04;87.03;99776.25;5080320;28;20053;-58
2023/03/03 01:32:49;;;;;;;17.27;9.68;;;;;;;0.12;89.17;99778.91;5079799;28;20016;-58
2023/03/03 01:35:14;;;;;;;17.23;9.23;;;;;;;-0.06;85.85;99778.22;5063841;28;20037;-58
2023/03/03 01:37:40;;;;;;;16.50;9.13;;;;;;;-0.05;85.71;99774.56;5076502;28;20023;-58
2023/03/03 01:40:07;;;;;;;15.60;9.50;;;;;;;-0.06;85.65;99779.03;5072267;28;20600;-59
2023/03/03 01:42:32;;;;;;;18.67;9.95;;;;;;;-0.23;85.94;99772.88;5077143;28;20023;-59
2023/03/03 01:45:16;;;;;;;17.73;9.40;;;;;;;-0.29;87.57;99778.78;5089838;28;20033;-60
2023/03/03 01:47:46;;;;;;;20.75;9.98;;;;;;;-0.25;87.31;99774.88;5082979;28;20500;-60
2023/03/03 01:50:19;;;;;;;22.20;10.05;;;;;;;-0.28;87.71;99767.25;5057282;28;20447;-59
2023/03/03 01:52:45;;;;;;;17.95;10.32;;;;;;;-0.32;87.70;99758.03;5063662;28;20033;-59
2023/03/03 01:55:13;;;;;;;20.23;10.80;;;;;;;-0.25;87.17;99764.31;5083114;28;20316;-60
2023/03/03 01:57:44;;;;;;;23.33;12.52;;;;;;;-0.25;88.27;99763.47;5078008;28;20031;-59
2023/03/03 02:00:10;;;;;;;19.33;10.43;;;;;;;-0.48;88.78;99763.22;5044516;28;20036;-59
2023/03/03 02:02:35;;;;;;;21.73;11.88;;;;;;;-0.35;90.74;99763.63;5049113;28;20031;-59
2023/03/03 02:05:01;;;;;;;22.50;12.35;;;;;;;-0.35;91.72;99758.38;5064367;28;20028;-60
2023/03/03 02:07:27;;;;;;;21.75;11.38;;;;;;;-0.56;91.10;99753.47;5085639;28;20023;-60
2023/03/03 02:10:04;;;;;;;18.77;11.40;;;;;;;-0.57;92.25;99751.84;5056773;28;20612;-60
2023/03/03 02:12:37;;;;;;;20.33;11.13;;;;;;;-0.63;93.12;99755.09;5086615;28;20036;-59
2023/03/03 02:15:31;;;;;;;25.67;13.52;;;;;;;-0.57;94.06;99758.94;5049025;28;20245;-59
2023/03/03 02:17:58;;;;;;;20.35;12.65;;;;;;;-0.56;93.42;99758.75;5084722;28;20153;-60
2023/03/03 02:20:49;;;;;;;22.88;12.68;;;;;;;-0.62;93.68;99753.28;5073365;28;20035;-60
2023/03/03 02:23:20;;;;;;;26.27;12.13;;;;;;;-0.52;94.92;99765.38;5087739;28;20127;-58
2023/03/03 02:25:55;;;;;;;24.45;12.38;;;;;;;-0.66;94.23;99756.22;5064310;28;20028;-58
2023/03/03 02:28:22;;;;;;;25.00;13.02;;;;;;;-0.66;94.76;99772.03;5061617;28;20055;-59
2023/03/03 02:30:47;;;;;;;27.42;13.73;;;;;;;-0.62;95.11;99769.94;5075576;28;20033;-59
2023/03/03 02:33:13;;;;;;;27.77;14.13;;;;;;;-0.64;95.54;99768.44;5073814;28;20024;-59
2023/03/03 02:35:39;;;;;;;29.33;13.27;;;;;;;-0.56;95.70;99765.84;5084046;28;20028;-59
2023/03/03 02:38:41;;;;;;;26.00;13.13;;;;;;;-0.50;95.52;99768.66;5081413;28;20024;-59
2023/03/03 02:41:18;;;;;;;26.02;14.10;;;;;;;-0.44;96.21;99764.56;5070365;28;20082;-59
2023/03/03 02:43:50;;;;;;;30.27;15.25;;;;;;;-0.47;97.31;99772.78;5075001;28;20020;-59
2023/03/03 02:46:15;;;;;;;34.55;18.52;;;;;;;-0.46;97.99;99771.81;5083387;28;20043;-59
2023/03/03 02:48:41;;;;;;;29.77;14.80;;;;;;;-0.44;99.45;99754.03;5091577;28;20024;-59
2023/03/03 02:51:06;;;;;;;32.85;17.60;;;;;;;-0.69;99.38;99766.25;5075381;28;20024;-59
2023/03/03 02:53:31;;;;;;;29.23;15.18;;;;;;;-0.78;99.10;99761.94;5081825;28;20063;-59
2023/03/03 02:55:57;;;;;;;29.58;15.93;;;;;;;-0.80;100.00;99767.38;5053551;28;20380;-59
2023/03/03 02:58:22;;;;;;;32.95;16.23;;;;;;;-0.97;99.99;99770.88;5089764;28;20032;-59
2023/03/03 03:00:48;;;;;;;34.30;16.75;;;;;;;-0.94;100.00;99783.72;5073776;28;20036;-59
2023/03/03 03:03:13;;;;;;;36.08;17.15;;;;;;;-1.04;100.00;99772.47;5083889;28;20081;-59
2023/03/03 03:05:39;;;;;;;36.30;17.40;;;;;;;-0.99;100.00;99772.84;5087126;28;20028;-59
2023/03/03 03:08:04;;;;;;;35.35;18.63;;;;;;;-0.91;100.00;99778.16;5065996;28;20017;-59
2023/03/03 03:10:30;;;;;;;34.17;19.08;;;;;;;-1.00;100.00;99773.78;5077921;28;20035;-59
2023/03/03 03:12:55;;;;;;;35.20;19.52;;;;;;;-1.02;100.00;99778.38;5052911;28;20052;-59
2023/03/03 03:15:21;;;;;;;37.95;19.02;;;;;;;-0.90;100.00;99780.63;5084501;28;20391;-59
2023/03/03 03:17:46;;;;;;;40.45;20.08;;;;;;;-1.09;100.00;99775.56;5085706;28;20024;-59
2023/03/03 03:20:12;;;;;;;40.90;20.13;;;;;;;-0.96;100.00;99780.41;5090982;28;20044;-59
2023/03/03 03:22:37;;;;;;;37.00;20.25;;;;;;;-1.09;100.00;99776.38;5085477;28;20466;-59
2023/03/03 03:25:03;;;;;;;43.95;20.27;;;;;;;-1.24;100.00;99780.56;5079446;28;20289;-59
2023/03/03 03:27:28;;;;;;;44.60;23.58;;;;;;;-1.07;100.00;99776.25;5077621;28;20079;-59
2023/03/03 03:29:54;;;;;;;42.55;21.58;;;;;;;-1.03;100.00;99776.75;5077793;28;20044;-59
2023/03/03 03:32:19;;;;;;;37.75;20.33;;;;;;;-1.32;100.00;99789.19;5083668;28;20021;-59
2023/03/03 03:34:44;;;;;;;38.03;18.92;;;;;;;-1.49;100.00;99786.59;5081331;28;20107;-59
2023/03/03 03:37:10;;;;;;;40.58;18.88;;;;;;;-1.45;100.00;99790.56;5081542;28;20489;-59
2023/03/03 03:39:35;;;;;;;44.63;20.88;;;;;;;-1.54;100.00;99792.28;5087853;28;20497;-59
2023/03/03 03:42:01;;;;;;;44.40;21.63;;;;;;;-1.68;100.00;99801.53;5073152;28;20039;-59
2023/03/03 03:44:26;;;;;;;41.08;20.17;;;;;;;-1.62;100.00;99803.56;5069541;28;20059;-59
2023/03/03 03:46:52;;;;;;;47.10;20.30;;;;;;;-1.39;100.00;99796.03;5088186;28;20043;-59
2023/03/03 03:49:17;;;;;;;44.92;22.58;;;;;;;-1.42;100.00;99804.25;5095006;28;20882;-59
2023/03/03 03:51:43;;;;;;;40.92;21.52;;;;;;;-1.43;100.00;99804.38;5090085;28;20374;-59
2023/03/03 03:54:08;;;;;;;43.92;21.50;;;;;;;-1.43;100.00;99809.63;5038663;28;20028;-59
2023/03/03 03:56:34;;;;;;;53.38;24.80;;;;;;;-1.45;100.00;99801.06;5075452;28;20073;-59
2023/03/03 03:58:59;;;;;;;51.58;25.05;;;;;;;-1.46;100.00;99802.06;5050730;28;20356;-59
2023/03/03 04:01:25;;;;;;;58.88;26.50;;;;;;;-1.52;100.00;99809.56;5079089;28;20020;-59
2023/03/03 04:03:51;;;;;;;62.60;26.13;;;;;;;-1.50;100.00;99803.31;5076765;28;20051;-59
2023/03/03 04:06:16;;;;;;;62.55;27.45;;;;;;;-1.55;100.00;99806.41;5087207;28;20496;-59
2023/03/03 04:08:42;;;;;;;65.30;26.88;;;;;;;-1.56;100.00;99807.38;5079718;28;20440;-60
2023/03/03 04:11:07;;;;;;;57.40;26.70;;;;;;;-1.64;100.00;99816.03;5082873;28;20040;-61
2023/03/03 04:13:34;;;;;;;61.60;28.65;;;;;;;-1.67;100.00;99813.69;5085964;28;20032;-59
2023/03/03 04:16:00;;;;;;;67.80;28.17;;;;;;;-1.73;100.00;99811.66;5082231;28;20047;-59
2023/03/03 04:18:25;;;;;;;58.55;27.48;;;;;;;-1.68;100.00;99812.03;5088874;28;20071;-59
2023/03/03 04:20:51;;;;;;;61.97;28.23;;;;;;;-1.71;100.00;99817.59;5075621;28;20432;-59
2023/03/03 04:23:18;;;;;;;68.00;29.30;;;;;;;-1.84;100.00;99817.13;5065944;28;20263;-59
2023/03/03 04:25:45;;;;;;;73.88;28.38;;;;;;;-1.92;100.00;99819.66;5084493;28;20089;-59
2023/03/03 04:28:11;;;;;;;64.63;26.67;;;;;;;-1.93;100.00;99818.00;5086738;28;20137;-59
2023/03/03 04:30:36;;;;;;;64.05;28.80;;;;;;;-1.96;100.00;99819.13;5077144;28;20040;-59
2023/03/03 04:33:02;;;;;;;70.63;29.80;;;;;;;-2.04;100.00;99817.25;5074811;28;20024;-59
2023/03/03 04:35:27;;;;;;;65.78;26.70;;;;;;;-2.02;100.00;99820.56;5075650;28;20020;-59
2023/03/03 04:37:53;;;;;;;78.95;29.13;;;;;;;-2.04;100.00;99816.44;5075890;28;20097;-60
2023/03/03 04:40:18;;;;;;;67.53;28.13;;;;;;;-2.07;100.00;99821.94;5077909;28;20081;-59
2023/03/03 04:42:44;;;;;;;70.20;30.40;;;;;;;-2.12;100.00;99819.78;5075371;28;20016;-59
2023/03/03 04:45:09;;;;;;;73.07;29.02;;;;;;;-2.09;100.00;99830.00;5062588;28;20128;-59
2023/03/03 04:47:35;;;;;;;83.53;30.50;;;;;;;-2.09;100.00;99819.50;5056220;28;20473;-59
2023/03/03 04:50:00;;;;;;;72.78;29.88;;;;;;;-2.08;100.00;99821.13;5074658;28;20444;-59
2023/03/03 04:52:26;;;;;;;73.53;31.13;;;;;;;-2.04;100.00;99822.50;5056692;28;20308;-59
2023/03/03 04:54:51;;;;;;;74.45;30.38;;;;;;;-2.05;100.00;99820.81;5063477;28;20032;-59
2023/03/03 04:57:17;;;;;;;86.07;31.52;;;;;;;-2.06;100.00;99824.44;5084467;28;20440;-60
2023/03/03 04:59:42;;;;;;;74.93;27.63;;;;;;;-2.07;100.00;99821.94;5076428;28;20039;-60
2023/03/03 05:02:08;;;;;;;72.13;31.42;;;;;;;-2.08;100.00;99829.00;5083244;28;20085;-59
2023/03/03 05:04:33;;;;;;;76.10;30.75;;;;;;;-2.07;100.00;99825.44;5082528;28;20020;-60
2023/03/03 05:06:59;;;;;;;74.60;31.08;;;;;;;-2.09;100.00;99830.00;5087188;28;20036;-59
2023/03/03 05:09:24;;;;;;;79.25;30.55;;;;;;;-2.03;100.00;99836.47;5081355;28;20035;-59
2023/03/03 05:11:50;;;;;;;86.90;31.73;;;;;;;-2.03;100.00;99839.06;5088231;28;20129;-59
2023/03/03 05:14:15;;;;;;;81.50;31.10;;;;;;;-2.09;100.00;99834.44;5081175;28;20440;-59
2023/03/03 05:16:41;;;;;;;91.97;33.25;;;;;;;-2.14;100.00;99815.66;5068319;28;20032;-60
2023/03/03 05:19:07;;;;;;;84.07;31.58;;;;;;;-2.07;100.00;99828.06;5083909;28;20034;-59
2023/03/03 05:21:33;;;;;;;91.75;34.30;;;;;;;-1.97;100.00;99838.50;5086877;28;20369;-60
2023/03/03 05:23:58;;;;;;;82.18;31.48;;;;;;;-2.00;100.00;99831.75;5064097;28;20124;-59
2023/03/03 05:26:23;;;;;;;82.75;33.10;;;;;;;-1.93;100.00;99831.97;5087818;28;20080;-59
2023/03/03 05:28:49;;;;;;;96.55;33.17;;;;;;;-2.00;100.00;99833.53;5080612;28;20028;-59
2023/03/03 05:31:14;;;;;;;82.55;32.90;;;;;;;-1.99;100.00;99836.03;5058610;28;20103;-59
2023/03/03 05:33:42;;;;;;;92.93;34.95;;;;;;;-2.01;100.00;99835.34;5081333;28;20028;-60
2023/03/03 05:36:08;;;;;;;89.53;33.83;;;;;;;-1.96;100.00;99830.47;5076523;28;20501;-59
2023/03/03 05:38:33;;;;;;;88.65;33.55;;;;;;;-2.02;100.00;99828.44;5080010;28;20035;-60
2023/03/03 05:40:59;;;;;;;91.65;34.78;;;;;;;-1.97;100.00;99838.50;5081659;28;20052;-59
2023/03/03 05:43:25;;;;;;;93.35;34.47;;;;;;;-2.00;100.00;99837.00;5079823;28;20024;-60
2023/03/03 05:45:55;;;;;;;77.95;31.88;;;;;;;-2.01;100.00;99831.88;5061264;28;20104;-60
2023/03/03 05:48:20;;;;;;;86.05;31.38;;;;;;;-1.99;100.00;99836.03;5089402;28;20577;-60
2023/03/03 05:50:46;;;;;;;89.53;33.45;;;;;;;-1.99;100.00;99836.03;5089925;28;20020;-59
2023/03/03 05:53:11;;;;;;;78.80;32.25;;;;;;;-1.97;100.00;99839.34;5086826;28;20059;-60
2023/03/03 05:55:37;;;;;;;92.90;34.10;;;;;;;-1.99;100.00;99836.03;5090473;28;20027;-59
2023/03/03 05:58:02;;;;;;;86.55;34.00;;;;;;;-1.86;100.00;99845.34;5085756;28;20283;-60
2023/03/03 06:00:27;;;;;;;95.65;34.03;;;;;;;-1.83;100.00;99855.56;5093438;28;20085;-59
2023/03/03 06:02:53;;;;;;;81.60;31.42;;;;;;;-1.83;100.00;99851.13;5079786;28;20216;-59
2023/03/03 06:05:19;;;;;;;81.05;31.63;;;;;;;-1.71;100.00;99849.13;5081097;28;20020;-59
2023/03/03 06:07:44;;;;;;;90.72;32.00;;;;;;;-1.86;100.00;99861.94;5062666;28;20282;-59
2023/03/03 06:10:10;;;;;;;79.15;31.92;;;;;;;-1.92;100.00;99859.91;5072378;28;20029;-59
2023/03/03 06:12:36;;;;;;;83.85;31.45;;;;;;;-1.95;100.00;99857.56;5083625;28;20040;-59
2023/03/03 06:15:01;;;;;;;71.82;27.83;;;;;;;-1.88;100.00;99868.31;5086612;28;20489;-59
2023/03/03 06:17:27;;;;;;;75.05;29.25;;;;;;;-1.94;100.00;99871.53;5081054;28;20469;-59
2023/03/03 06:19:52;;;;;;;72.68;29.65;;;;;;;-1.84;100.00;99880.19;5074755;28;20055;-59
2023/03/03 06:22:18;;;;;;;85.20;32.22;;;;;;;-1.81;100.00;99879.91;5079179;28;20092;-59
2023/03/03 06:24:44;;;;;;;84.38;32.60;;;;;;;-1.76;100.00;99889.00;5058567;28;20359;-59
2023/03/03 06:27:09;;;;;;;81.63;30.77;;;;;;;-1.84;100.00;99886.28;5084526;28;20097;-59
2023/03/03 06:29:35;;;;;;;94.47;30.10;;;;;;;-1.84;100.00;99894.16;5077655;28;20028;-59
2023/03/03 06:32:00;;;;;;;90.80;30.90;;;;;;;-1.78;100.00;99896.19;5079962;28;20036;-59
2023/03/03 06:34:25;;;;;;;94.88;32.42;;;;;;;-1.75;100.00;99895.94;5076567;28;20115;-59
2023/03/03 06:36:51;;;;;;;85.30;31.58;;;;;;;-1.66;100.00;99890.75;5075901;28;20132;-60
2023/03/03 06:39:17;;;;;;;100.65;33.22;;;;;;;-1.78;100.00;99896.19;5075749;28;20106;-60
2023/03/03 06:41:42;;;;;;;97.22;34.20;;;;;;;-1.79;100.00;99894.56;5080725;28;20062;-59
2023/03/03 06:44:08;;;;;;;93.10;33.33;;;;;;;-1.77;100.00;99891.78;5062067;28;20012;-59
2023/03/03 06:46:33;;;;;;;97.72;34.95;;;;;;;-1.75;100.00;99892.44;5080728;28;20378;-59
2023/03/03 06:48:59;;;;;;;89.88;32.88;;;;;;;-1.78;100.00;99895.38;5085639;28;20470;-59
2023/03/03 06:51:28;;;;;;;83.38;31.95;;;;;;;-1.71;100.00;99893.00;5086833;28;20035;-59
2023/03/03 06:53:55;;;;;;;107.33;36.50;;;;;;;-1.71;100.00;99906.13;5049118;28;20036;-59
2023/03/03 06:56:22;;;;;;;118.28;39.92;;;;;;;-1.77;100.00;99911.00;5076011;28;20133;-59
2023/03/03 06:58:48;;;;;;;100.05;36.03;;;;;;;-1.75;100.00;99921.34;5080474;28;20483;-60
2023/03/03 07:01:15;;;;;;;106.22;37.80;;;;;;;-1.72;100.00;99918.47;5077474;28;20445;-60
2023/03/03 07:03:41;;;;;;;96.80;32.70;;;;;;;-1.71;100.00;99912.22;5082454;28;20028;-60
2023/03/03 07:06:23;;;;;;;106.90;37.20;;;;;;;-1.69;100.00;99920.78;5083269;28;20031;-60
2023/03/03 07:08:49;;;;;;;97.53;33.53;;;;;;;-1.68;100.00;99922.44;5080218;28;20111;-60
2023/03/03 07:11:16;;;;;;;92.90;36.08;;;;;;;-1.69;100.00;99920.78;5075678;28;20513;-59
2023/03/03 07:13:45;;;;;;;103.38;34.83;;;;;;;-1.68;100.00;99930.31;5066614;28;20031;-59
2023/03/03 07:16:12;;;;;;;105.50;34.65;;;;;;;-1.58;100.00;99927.63;5083839;28;20024;-60
2023/03/03 07:18:44;;;;;;;111.82;38.25;;;;;;;-1.61;100.00;99934.00;5080205;28;20044;-59
2023/03/03 07:21:30;;;;;;;101.95;35.38;;;;;;;-1.64;100.00;99933.50;5075345;28;20050;-59
2023/03/03 07:23:59;;;;;;;118.50;38.50;;;;;;;-1.54;100.00;99948.22;5079318;28;20035;-59
2023/03/03 07:26:33;;;;;;;103.47;34.80;;;;;;;-1.46;100.00;99947.50;5056380;28;20069;-61
2023/03/03 07:29:00;;;;;;;129.30;42.00;;;;;;;-1.56;100.00;99962.50;5058876;28;20039;-59
2023/03/03 07:31:27;;;;;;;130.70;41.22;;;;;;;-1.57;100.00;99953.78;5087667;28;20505;-59
2023/03/03 07:33:52;;;;;;;111.32;38.03;;;;;;;-1.60;100.00;99963.75;5078597;28;20514;-60
2023/03/03 07:36:36;;;;;;;119.50;38.20;;;;;;;-1.37;100.00;99964.22;5059605;28;20103;-60
2023/03/03 07:39:28;;;;;;;124.43;40.40;;;;;;;-1.55;100.00;99970.25;5077820;28;20029;-60
2023/03/03 07:41:58;;;;;;;125.10;40.33;;;;;;;-1.46;100.00;99970.34;5068865;28;20051;-60
2023/03/03 07:44:31;;;;;;;109.97;38.72;;;;;;;-1.44;100.00;99971.84;5048394;28;20035;-59
2023/03/03 07:46:57;;;;;;;143.55;45.42;;;;;;;-1.38;100.00;99970.44;5067459;28;20398;-59
2023/03/03 07:49:35;;;;;;;168.07;53.03;;;;;;;-1.36;100.00;99971.94;5077616;28;20129;-60
2023/03/03 07:52:01;;;;;;;129.02;44.53;;;;;;;-1.48;100.00;99985.44;5058498;28;20727;-59
2023/03/03 07:54:39;;;;;;;138.00;45.78;;;;;;;-1.37;100.00;99983.44;5076169;28;20107;-59
2023/03/03 07:57:10;;;;;;;83.40;30.92;;;;;;;-1.42;100.00;99984.81;5078028;28;20112;-59
2023/03/03 07:59:54;;;;;;;148.57;46.60;;;;;;;-1.42;100.00;99995.34;5077111;28;20067;-59
2023/03/03 08:02:48;;;;;;;132.15;42.08;;;;;;;-1.25;100.00;99997.19;5061706;28;20032;-59
2023/03/03 08:05:30;;;;;;;118.28;39.90;;;;;;;-1.25;100.00;99993.75;5078698;28;20038;-59
2023/03/03 08:08:29;;;;;;;134.50;40.40;;;;;;;-1.34;100.00;99998.09;5083326;28;20122;-59
2023/03/03 08:10:56;;;;;;;107.05;33.65;;;;;;;-1.31;100.00;100003.06;5066757;28;20071;-59
2023/03/03 08:13:22;;;;;;;137.63;39.00;;;;;;;-1.22;100.00;100001.31;5078761;28;20041;-59
2023/03/03 08:15:52;;;;;;;133.23;41.15;;;;;;;-1.25;100.00;100001.63;5054531;28;20530;-59
2023/03/03 08:18:29;;;;;;;159.27;45.63;;;;;;;-1.29;100.00;99995.03;5057505;28;20036;-59
2023/03/03 08:21:07;;;;;;;156.40;46.08;;;;;;;-1.29;100.00;99995.84;5072667;28;20036;-60
2023/03/03 08:23:32;;;;;;;157.82;42.60;;;;;;;-1.10;100.00;100000.16;5082016;28;20183;-60
2023/03/03 08:25:57;;;;;;;156.43;47.60;;;;;;;-1.15;100.00;100002.41;5080371;28;20494;-58
2023/03/03 08:28:23;;;;;;;153.90;46.60;;;;;;;-1.10;100.00;100000.16;5077539;28;20032;-58
2023/03/03 08:30:48;;;;;;;160.68;46.70;;;;;;;-0.87;100.00;100005.84;5074230;28;20040;-60
2023/03/03 08:33:14;;;;;;;145.88;45.03;;;;;;;-0.93;100.00;100001.16;5083988;28;20028;-60
2023/03/03 08:35:39;;;;;;;151.90;47.03;;;;;;;-0.91;100.00;99999.22;5062474;28;20494;-60
2023/03/03 08:38:05;;;;;;;138.32;42.55;;;;;;;-0.88;100.00;99998.91;5079141;28;20443;-60
2023/03/03 08:40:30;;;;;;;133.55;42.72;;;;;;;-0.73;100.00;100009.75;5068428;28;20028;-60
2023/03/03 08:42:57;;;;;;;138.30;41.90;;;;;;;-0.77;100.00;100001.31;5060795;28;20032;-60
2023/03/03 08:45:23;;;;;;;152.32;45.95;;;;;;;-0.72;100.00;100014.88;5079529;28;20028;-61
2023/03/03 08:47:48;;;;;;;160.25;45.22;;;;;;;-0.79;100.00;100002.44;5084191;28;20051;-60
2023/03/03 08:50:14;;;;;;;152.15;45.10;;;;;;;-0.68;100.00;100005.66;5064698;28;20422;-59
2023/03/03 08:52:40;;;;;;;170.90;44.92;;;;;;;-0.55;100.00;100015.00;5080184;28;20094;-60
2023/03/03 08:55:05;;;;;;;137.50;44.25;;;;;;;-0.56;100.00;100013.34;5068518;28;20465;-60
2023/03/03 08:57:31;;;;;;;162.00;45.65;;;;;;;-0.37;100.00;100015.00;5067956;28;20028;-60
2023/03/03 08:59:56;;;;;;;171.50;48.42;;;;;;;-0.55;100.00;100010.59;5080838;28;20032;-60
2023/03/03 09:02:22;;;;;;;144.07;39.65;;;;;;;-0.45;100.00;100021.00;5085559;28;20035;-58
2023/03/03 09:04:47;;;;;;;151.15;43.28;;;;;;;-0.59;100.00;100029.47;5085473;28;20028;-59
2023/03/03 09:07:13;;;;;;;152.57;42.15;;;;;;;-0.48;100.00;100031.84;5066443;28;20028;-58
2023/03/03 09:09:39;;;;;;;165.27;43.40;;;;;;;-0.46;100.00;100022.00;5086003;28;20040;-59
2023/03/03 09:12:16;;;;;;;144.35;43.83;;;;;;;-0.52;100.00;100027.88;5081744;28;20068;-60
2023/03/03 09:14:41;;;;;;;162.23;46.35;;;;;;;-0.46;100.00;100028.09;5082462;28;20016;-60
2023/03/03 09:17:24;;;;;;;160.98;45.55;;;;;;;-0.46;100.00;100033.34;5091035;28;20020;-59
2023/03/03 09:19:50;;;;;;;132.43;39.80;;;;;;;-0.39;100.00;100041.50;5060312;28;20243;-61
2023/03/03 09:22:27;;;;;;;141.90;42.83;;;;;;;-0.61;100.00;100039.31;5078199;28;20040;-59
2023/03/03 09:24:54;;;;;;;160.57;44.90;;;;;;;-0.46;100.00;100040.44;5056975;28;20032;-60
2023/03/03 09:27:26;;;;;;;121.85;39.42;;;;;;;-0.49;100.00;100040.75;5084941;28;20030;-58
2023/03/03 09:29:51;;;;;;;127.70;37.60;;;;;;;-0.42;100.00;100047.06;5076088;28;20041;-59
2023/03/03 09:32:34;;;;;;;152.38;45.30;;;;;;;-0.48;100.00;100040.56;5082609;28;20059;-58
2023/03/03 09:35:02;;;;;;;157.82;43.75;;;;;;;-0.25;100.00;100051.50;5059769;28;20037;-59
2023/03/03 09:37:31;;;;;;;166.13;46.60;;;;;;;-0.09;100.00;100048.16;5062296;28;20041;-59
2023/03/03 09:39:57;;;;;;;148.85;43.38;;;;;;;-0.23;100.00;100054.78;5054238;28;20044;-59
2023/03/03 09:42:34;;;;;;;126.70;38.92;;;;;;;-0.24;100.00;100054.94;5091079;28;20172;-60
2023/03/03 09:45:18;;;;;;;106.85;35.63;;;;;;;-0.44;100.00;100054.28;5085330;28;20034;-60
2023/03/03 09:47:49;;;;;;;139.05;41.42;;;;;;;-0.36;100.00;100054.34;5085356;28;20089;-60
2023/03/03 09:50:18;;;;;;;161.07;43.60;;;;;;;-0.22;100.00;100053.81;5078540;28;20028;-60
2023/03/03 09:53:11;;;;;;;149.68;43.38;;;;;;;-0.15;100.00;100053.19;5088837;28;20047;-60
2023/03/03 09:55:44;;;;;;;148.80;40.80;;;;;;;-0.12;100.00;100058.19;5088350;28;20020;-60
2023/03/03 09:58:28;;;;;;;129.95;38.47;;;;;;;0.03;100.00;100061.09;5077847;28;20026;-60
2023/03/03 10:01:02;;;;;;;127.22;37.33;;;;;;;-0.06;100.00;100063.66;5083247;28;20036;-60
2023/03/03 10:03:45;;;;;;;124.03;39.78;;;;;;;-0.01;100.00;100066.66;5083185;28;20040;-58
2023/03/03 10:06:20;;;;;;;151.05;45.80;;;;;;;0.08;100.00;100059.63;5077275;28;20673;-59
2023/03/03 10:08:54;;;;;;;128.50;39.88;;;;;;;0.06;100.00;100066.88;5082020;28;20386;-60
2023/03/03 10:11:26;;;;;;;136.43;42.60;;;;;;;0.07;100.00;100062.41;5083235;28;20048;-59
2023/03/03 10:14:00;;;;;;;126.65;38.42;;;;;;;0.12;100.00;100062.78;5077862;28;20028;-59
2023/03/03 10:16:54;;;;;;;130.70;40.78;;;;;;;0.29;100.00;100069.00;5068604;28;20032;-59
2023/03/03 10:19:29;;;;;;;117.57;36.50;;;;;;;0.07;100.00;100067.69;5063420;28;20039;-59
2023/03/03 10:22:05;;;;;;;83.72;31.27;;;;;;;-0.13;100.00;100070.50;5070701;28;20497;-59
2023/03/03 10:24:39;;;;;;;130.60;39.22;;;;;;;-0.06;100.00;100070.72;5063010;28;20028;-59
2023/03/03 10:27:23;;;;;;;103.93;35.67;;;;;;;0.04;100.00;100066.19;5046347;28;20248;-59
2023/03/03 10:30:03;;;;;;;134.88;40.20;;;;;;;0.30;100.00;100074.13;5084074;28;20036;-59
2023/03/03 10:32:53;;;;;;;158.88;44.00;;;;;;;0.38;100.00;100074.16;5070582;28;20123;-59
2023/03/03 10:35:31;;;;;;;181.82;53.17;;;;;;;0.15;100.00;100081.78;5052985;28;20028;-59
2023/03/03 10:38:15;;;;;;;132.65;39.10;;;;;;;0.19;100.00;100085.72;5082538;28;20035;-59
2023/03/03 10:40:47;;;;;;;125.93;37.45;;;;;;;0.02;100.00;100096.31;5080079;28;20035;-59
2023/03/03 10:43:24;;;;;;;139.85;40.88;;;;;;;0.18;100.00;100102.56;5077319;28;20279;-59
2023/03/03 10:46:02;;;;;;;131.38;40.22;;;;;;;0.23;100.00;100094.19;5085758;28;20038;-59
2023/03/03 10:49:13;;;;;;;122.82;39.75;;;;;;;0.24;100.00;100095.81;5071720;28;20036;-59
2023/03/03 10:51:53;;;;;;;132.77;42.28;;;;;;;0.16;100.00;100099.22;5065319;28;20130;-59
2023/03/03 10:54:43;;;;;;;106.15;34.92;;;;;;;0.11;100.00;100098.88;5080002;28;20100;-59
2023/03/03 10:57:27;;;;;;;126.20;39.95;;;;;;;0.10;100.00;100107.78;5077850;28;20058;-59
2023/03/03 11:00:17;;;;;;;92.70;31.58;;;;;;;-0.03;100.00;100104.69;5076633;28;20032;-59
2023/03/03 11:02:53;;;;;;;111.15;36.25;;;;;;;0.09;100.00;100118.44;5076364;28;20518;-58
2023/03/03 11:05:29;;;;;;;123.78;38.47;;;;;;;0.12;100.00;100113.69;5062498;28;20035;-59
2023/03/03 11:08:08;;;;;;;122.28;39.30;;;;;;;0.35;100.00;100118.47;5073291;28;20094;-58
2023/03/03 11:10:37;;;;;;;126.30;41.17;;;;;;;0.31;100.00;100111.88;5061359;28;20102;-58
2023/03/03 11:13:20;;;;;;;121.78;39.75;;;;;;;0.28;100.00;100126.19;5068785;28;20369;-58
2023/03/03 11:15:52;;;;;;;111.65;38.03;;;;;;;0.21;100.00;100128.59;5068040;28;20027;-58
2023/03/03 11:18:28;;;;;;;98.57;34.70;;;;;;;0.29;100.00;100119.09;5080099;28;20900;-58
2023/03/03 11:21:14;;;;;;;98.93;33.85;;;;;;;0.28;100.00;100123.56;5053927;28;20041;-58